sensor_id;sensor_type;location;lat;lon;timestamp;P1;durP1;ratioP1;P2;durP2;ratioP2
39102;SDS011;24847;48.218;16.414;2022-07-29T00:01:34;2.83;;;2.40;;
39102;SDS011;24847;48.218;16.414;2022-07-29T00:06:38;3.92;;;2.65;;
39102;SDS011;24847;48.218;16.414;2022-07-29T00:11:40;3.33;;;2.45;;
39102;SDS011;24847;48.218;16.414;2022-07-29T00:16:43;2.30;;;2.10;;
39102;SDS011;24847;48.218;16.414;2022-07-29T00:21:46;2.67;;;2.28;;
39102;SDS011;24847;48.218;16.414;2022-07-29T00:26:49;2.50;;;2.30;;
39102;SDS011;24847;48.218;16.414;2022-07-29T00:31:51;3.05;;;1.95;;
39102;SDS011;24847;48.218;16.414;2022-07-29T00:36:54;3.70;;;2.60;;
39102;SDS011;24847;48.218;16.414;2022-07-29T00:41:57;2.83;;;2.60;;
39102;SDS011;24847;48.218;16.414;2022-07-29T00:46:59;2.58;;;2.38;;
39102;SDS011;24847;48.218;16.414;2022-07-29T00:52:02;2.85;;;2.40;;
39102;SDS011;24847;48.218;16.414;2022-07-29T00:57:06;3.25;;;2.55;;
39102;SDS011;24847;48.218;16.414;2022-07-29T01:02:09;2.40;;;2.20;;
39102;SDS011;24847;48.218;16.414;2022-07-29T01:07:13;2.70;;;2.50;;
39102;SDS011;24847;48.218;16.414;2022-07-29T01:12:16;3.92;;;2.35;;
39102;SDS011;24847;48.218;16.414;2022-07-29T01:17:21;3.45;;;2.60;;
39102;SDS011;24847;48.218;16.414;2022-07-29T01:22:31;4.00;;;2.83;;
39102;SDS011;24847;48.218;16.414;2022-07-29T01:33:15;2.88;;;2.33;;
39102;SDS011;24847;48.218;16.414;2022-07-29T01:38:35;3.10;;;2.40;;
39102;SDS011;24847;48.218;16.414;2022-07-29T01:43:42;3.40;;;3.00;;
39102;SDS011;24847;48.218;16.414;2022-07-29T01:48:53;2.75;;;2.40;;
39102;SDS011;24847;48.218;16.414;2022-07-29T01:54:02;4.20;;;2.80;;
39102;SDS011;24847;48.218;16.414;2022-07-29T01:59:10;3.47;;;2.53;;
39102;SDS011;24847;48.218;16.414;2022-07-29T02:04:14;4.07;;;2.75;;
39102;SDS011;24847;48.218;16.414;2022-07-29T02:09:18;3.17;;;2.58;;
39102;SDS011;24847;48.218;16.414;2022-07-29T02:14:22;2.90;;;2.70;;
39102;SDS011;24847;48.218;16.414;2022-07-29T02:19:27;4.15;;;2.67;;
39102;SDS011;24847;48.218;16.414;2022-07-29T02:24:33;3.10;;;2.83;;
39102;SDS011;24847;48.218;16.414;2022-07-29T02:29:38;3.28;;;2.92;;
39102;SDS011;24847;48.218;16.414;2022-07-29T02:34:43;5.85;;;3.10;;
39102;SDS011;24847;48.218;16.414;2022-07-29T02:39:47;3.00;;;2.70;;
39102;SDS011;24847;48.218;16.414;2022-07-29T02:44:53;2.97;;;2.72;;
39102;SDS011;24847;48.218;16.414;2022-07-29T02:50:02;3.67;;;3.28;;
39102;SDS011;24847;48.218;16.414;2022-07-29T02:55:12;2.72;;;2.53;;
39102;SDS011;24847;48.218;16.414;2022-07-29T03:00:19;2.75;;;2.55;;
39102;SDS011;24847;48.218;16.414;2022-07-29T03:05:25;3.42;;;3.13;;
39102;SDS011;24847;48.218;16.414;2022-07-29T03:10:28;4.80;;;3.13;;
39102;SDS011;24847;48.218;16.414;2022-07-29T03:15:32;3.28;;;2.97;;
39102;SDS011;24847;48.218;16.414;2022-07-29T03:20:36;4.10;;;3.70;;
39102;SDS011;24847;48.218;16.414;2022-07-29T03:25:39;11.02;;;9.23;;
39102;SDS011;24847;48.218;16.414;2022-07-29T03:30:41;9.32;;;8.23;;
39102;SDS011;24847;48.218;16.414;2022-07-29T03:35:44;6.60;;;5.47;;
39102;SDS011;24847;48.218;16.414;2022-07-29T03:40:49;3.72;;;3.38;;
39102;SDS011;24847;48.218;16.414;2022-07-29T03:45:56;5.07;;;4.57;;
39102;SDS011;24847;48.218;16.414;2022-07-29T03:51:02;5.32;;;4.80;;
39102;SDS011;24847;48.218;16.414;2022-07-29T03:56:05;5.57;;;3.85;;
39102;SDS011;24847;48.218;16.414;2022-07-29T04:01:08;9.38;;;6.13;;
39102;SDS011;24847;48.218;16.414;2022-07-29T04:06:13;4.00;;;3.60;;
39102;SDS011;24847;48.218;16.414;2022-07-29T04:11:15;3.88;;;3.45;;
39102;SDS011;24847;48.218;16.414;2022-07-29T04:16:18;4.57;;;3.60;;
39102;SDS011;24847;48.218;16.414;2022-07-29T04:21:21;4.70;;;3.70;;
39102;SDS011;24847;48.218;16.414;2022-07-29T04:26:23;4.25;;;3.40;;
39102;SDS011;24847;48.218;16.414;2022-07-29T04:31:25;3.88;;;3.15;;
39102;SDS011;24847;48.218;16.414;2022-07-29T04:36:29;4.40;;;3.65;;
39102;SDS011;24847;48.218;16.414;2022-07-29T04:41:32;3.38;;;3.08;;
39102;SDS011;24847;48.218;16.414;2022-07-29T04:46:34;4.82;;;4.30;;
39102;SDS011;24847;48.218;16.414;2022-07-29T04:51:38;4.25;;;3.47;;
39102;SDS011;24847;48.218;16.414;2022-07-29T04:56:40;4.60;;;3.55;;
39102;SDS011;24847;48.218;16.414;2022-07-29T05:01:42;3.42;;;3.13;;
39102;SDS011;24847;48.218;16.414;2022-07-29T05:06:46;4.00;;;3.70;;
39102;SDS011;24847;48.218;16.414;2022-07-29T05:11:48;5.43;;;3.53;;
39102;SDS011;24847;48.218;16.414;2022-07-29T05:16:50;6.43;;;3.78;;
39102;SDS011;24847;48.218;16.414;2022-07-29T05:21:58;4.15;;;3.30;;
39102;SDS011;24847;48.218;16.414;2022-07-29T05:27:00;5.10;;;3.45;;
39102;SDS011;24847;48.218;16.414;2022-07-29T05:32:02;4.40;;;3.58;;
39102;SDS011;24847;48.218;16.414;2022-07-29T05:37:07;4.50;;;3.53;;
39102;SDS011;24847;48.218;16.414;2022-07-29T05:42:09;3.80;;;3.45;;
39102;SDS011;24847;48.218;16.414;2022-07-29T05:47:11;3.60;;;3.10;;
39102;SDS011;24847;48.218;16.414;2022-07-29T05:52:15;4.63;;;3.17;;
39102;SDS011;24847;48.218;16.414;2022-07-29T05:57:18;3.47;;;3.13;;
39102;SDS011;24847;48.218;16.414;2022-07-29T06:02:22;4.03;;;3.53;;
39102;SDS011;24847;48.218;16.414;2022-07-29T06:07:25;5.07;;;3.10;;
39102;SDS011;24847;48.218;16.414;2022-07-29T06:12:27;5.57;;;3.75;;
39102;SDS011;24847;48.218;16.414;2022-07-29T06:17:30;4.88;;;4.47;;
39102;SDS011;24847;48.218;16.414;2022-07-29T06:22:34;4.70;;;3.60;;
39102;SDS011;24847;48.218;16.414;2022-07-29T06:27:36;6.50;;;3.30;;
39102;SDS011;24847;48.218;16.414;2022-07-29T06:32:38;3.50;;;3.03;;
39102;SDS011;24847;48.218;16.414;2022-07-29T06:37:42;5.65;;;3.58;;
39102;SDS011;24847;48.218;16.414;2022-07-29T06:42:44;4.57;;;3.55;;
39102;SDS011;24847;48.218;16.414;2022-07-29T06:47:46;3.72;;;3.30;;
39102;SDS011;24847;48.218;16.414;2022-07-29T06:52:50;6.28;;;3.08;;
39102;SDS011;24847;48.218;16.414;2022-07-29T06:57:52;5.32;;;3.50;;
39102;SDS011;24847;48.218;16.414;2022-07-29T07:02:54;3.38;;;3.08;;
39102;SDS011;24847;48.218;16.414;2022-07-29T07:07:58;3.45;;;3.15;;
39102;SDS011;24847;48.218;16.414;2022-07-29T07:13:00;3.40;;;3.10;;
39102;SDS011;24847;48.218;16.414;2022-07-29T07:18:04;3.53;;;3.15;;
39102;SDS011;24847;48.218;16.414;2022-07-29T07:23:08;4.57;;;3.33;;
39102;SDS011;24847;48.218;16.414;2022-07-29T07:28:11;5.32;;;3.15;;
39102;SDS011;24847;48.218;16.414;2022-07-29T07:33:13;4.63;;;3.28;;
39102;SDS011;24847;48.218;16.414;2022-07-29T07:38:17;3.90;;;3.22;;
39102;SDS011;24847;48.218;16.414;2022-07-29T07:43:19;3.67;;;3.10;;
39102;SDS011;24847;48.218;16.414;2022-07-29T07:48:22;3.95;;;3.55;;
39102;SDS011;24847;48.218;16.414;2022-07-29T07:53:25;3.92;;;3.60;;
39102;SDS011;24847;48.218;16.414;2022-07-29T07:58:29;3.60;;;3.30;;
39102;SDS011;24847;48.218;16.414;2022-07-29T08:03:32;4.28;;;3.33;;
39102;SDS011;24847;48.218;16.414;2022-07-29T08:08:36;4.60;;;3.70;;
39102;SDS011;24847;48.218;16.414;2022-07-29T08:13:38;4.80;;;3.50;;
39102;SDS011;24847;48.218;16.414;2022-07-29T08:18:41;3.92;;;3.40;;
39102;SDS011;24847;48.218;16.414;2022-07-29T08:23:46;5.00;;;3.40;;
39102;SDS011;24847;48.218;16.414;2022-07-29T08:28:49;4.95;;;3.63;;
39102;SDS011;24847;48.218;16.414;2022-07-29T08:33:51;3.83;;;3.40;;
39102;SDS011;24847;48.218;16.414;2022-07-29T08:38:54;3.85;;;3.40;;
39102;SDS011;24847;48.218;16.414;2022-07-29T08:43:57;4.30;;;3.55;;
39102;SDS011;24847;48.218;16.414;2022-07-29T08:48:59;5.07;;;3.55;;
39102;SDS011;24847;48.218;16.414;2022-07-29T08:54:04;4.13;;;3.72;;
39102;SDS011;24847;48.218;16.414;2022-07-29T08:59:07;4.20;;;3.40;;
39102;SDS011;24847;48.218;16.414;2022-07-29T09:04:11;3.95;;;3.58;;
39102;SDS011;24847;48.218;16.414;2022-07-29T09:09:15;3.47;;;3.00;;
39102;SDS011;24847;48.218;16.414;2022-07-29T09:14:18;3.72;;;3.40;;
39102;SDS011;24847;48.218;16.414;2022-07-29T09:19:21;3.80;;;3.35;;
39102;SDS011;24847;48.218;16.414;2022-07-29T09:24:40;3.95;;;3.60;;
39102;SDS011;24847;48.218;16.414;2022-07-29T09:29:45;3.40;;;3.10;;
39102;SDS011;24847;48.218;16.414;2022-07-29T09:34:48;3.53;;;3.22;;
39102;SDS011;24847;48.218;16.414;2022-07-29T09:39:52;4.60;;;3.20;;
39102;SDS011;24847;48.218;16.414;2022-07-29T09:44:54;4.90;;;3.60;;
39102;SDS011;24847;48.218;16.414;2022-07-29T09:49:57;3.65;;;3.35;;
39102;SDS011;24847;48.218;16.414;2022-07-29T09:55:05;4.65;;;3.40;;
39102;SDS011;24847;48.218;16.414;2022-07-29T10:05:17;4.65;;;3.22;;
39102;SDS011;24847;48.218;16.414;2022-07-29T10:10:24;3.58;;;3.28;;
39102;SDS011;24847;48.218;16.414;2022-07-29T10:15:29;3.05;;;2.85;;
39102;SDS011;24847;48.218;16.414;2022-07-29T10:20:32;3.47;;;2.85;;
39102;SDS011;24847;48.218;16.414;2022-07-29T10:25:37;3.60;;;2.80;;
39102;SDS011;24847;48.218;16.414;2022-07-29T10:30:40;3.15;;;2.85;;
39102;SDS011;24847;48.218;16.414;2022-07-29T10:35:44;3.55;;;3.15;;
39102;SDS011;24847;48.218;16.414;2022-07-29T10:41:03;3.60;;;3.30;;
39102;SDS011;24847;48.218;16.414;2022-07-29T10:46:34;3.88;;;3.10;;
39102;SDS011;24847;48.218;16.414;2022-07-29T10:51:58;3.08;;;2.67;;
39102;SDS011;24847;48.218;16.414;2022-07-29T10:57:11;4.63;;;3.25;;
39102;SDS011;24847;48.218;16.414;2022-07-29T11:13:46;3.25;;;2.95;;
39102;SDS011;24847;48.218;16.414;2022-07-29T11:24:23;3.47;;;3.15;;
39102;SDS011;24847;48.218;16.414;2022-07-29T11:29:30;3.15;;;2.78;;
39102;SDS011;24847;48.218;16.414;2022-07-29T11:34:33;3.25;;;3.00;;
39102;SDS011;24847;48.218;16.414;2022-07-29T11:39:37;3.38;;;3.00;;
39102;SDS011;24847;48.218;16.414;2022-07-29T11:44:54;3.40;;;3.13;;
39102;SDS011;24847;48.218;16.414;2022-07-29T11:49:58;4.75;;;3.20;;
39102;SDS011;24847;48.218;16.414;2022-07-29T11:55:01;3.00;;;2.80;;
39102;SDS011;24847;48.218;16.414;2022-07-29T12:00:08;3.95;;;3.20;;
39102;SDS011;24847;48.218;16.414;2022-07-29T12:05:12;3.20;;;2.90;;
39102;SDS011;24847;48.218;16.414;2022-07-29T12:10:15;4.00;;;3.60;;
39102;SDS011;24847;48.218;16.414;2022-07-29T12:15:19;3.30;;;3.00;;
39102;SDS011;24847;48.218;16.414;2022-07-29T12:20:24;3.38;;;2.95;;
39102;SDS011;24847;48.218;16.414;2022-07-29T12:25:32;2.80;;;2.60;;
39102;SDS011;24847;48.218;16.414;2022-07-29T12:30:38;3.15;;;2.90;;
39102;SDS011;24847;48.218;16.414;2022-07-29T12:35:47;3.45;;;2.80;;
39102;SDS011;24847;48.218;16.414;2022-07-29T12:40:52;2.92;;;2.72;;
39102;SDS011;24847;48.218;16.414;2022-07-29T12:45:56;3.28;;;2.65;;
39102;SDS011;24847;48.218;16.414;2022-07-29T12:51:03;3.08;;;2.78;;
39102;SDS011;24847;48.218;16.414;2022-07-29T12:56:09;3.72;;;2.80;;
39102;SDS011;24847;48.218;16.414;2022-07-29T13:01:18;3.10;;;2.90;;
39102;SDS011;24847;48.218;16.414;2022-07-29T13:06:29;3.25;;;2.95;;
39102;SDS011;24847;48.218;16.414;2022-07-29T13:11:35;3.55;;;3.17;;
39102;SDS011;24847;48.218;16.414;2022-07-29T13:22:06;3.78;;;3.03;;
39102;SDS011;24847;48.218;16.414;2022-07-29T13:27:09;3.58;;;3.28;;
39102;SDS011;24847;48.218;16.414;2022-07-29T13:32:13;4.00;;;3.42;;
39102;SDS011;24847;48.218;16.414;2022-07-29T13:37:15;3.92;;;3.30;;
39102;SDS011;24847;48.218;16.414;2022-07-29T13:42:19;3.75;;;2.80;;
39102;SDS011;24847;48.218;16.414;2022-07-29T13:47:23;3.00;;;2.70;;
39102;SDS011;24847;48.218;16.414;2022-07-29T13:52:26;4.63;;;3.28;;
39102;SDS011;24847;48.218;16.414;2022-07-29T13:57:29;5.82;;;3.80;;
39102;SDS011;24847;48.218;16.414;2022-07-29T14:02:32;4.45;;;3.70;;
39102;SDS011;24847;48.218;16.414;2022-07-29T14:07:34;7.05;;;4.60;;
39102;SDS011;24847;48.218;16.414;2022-07-29T14:12:38;4.53;;;3.80;;
39102;SDS011;24847;48.218;16.414;2022-07-29T14:17:43;4.38;;;3.38;;
39102;SDS011;24847;48.218;16.414;2022-07-29T14:22:45;4.32;;;3.40;;
39102;SDS011;24847;48.218;16.414;2022-07-29T14:27:48;8.27;;;6.93;;
39102;SDS011;24847;48.218;16.414;2022-07-29T14:32:52;4.32;;;3.92;;
39102;SDS011;24847;48.218;16.414;2022-07-29T14:37:54;3.88;;;3.40;;
39102;SDS011;24847;48.218;16.414;2022-07-29T14:42:57;4.85;;;3.85;;
39102;SDS011;24847;48.218;16.414;2022-07-29T14:48:00;4.78;;;3.75;;
39102;SDS011;24847;48.218;16.414;2022-07-29T14:53:03;5.43;;;3.92;;
39102;SDS011;24847;48.218;16.414;2022-07-29T14:58:05;5.25;;;4.18;;
39102;SDS011;24847;48.218;16.414;2022-07-29T15:03:09;4.72;;;4.32;;
39102;SDS011;24847;48.218;16.414;2022-07-29T15:08:11;5.57;;;4.10;;
39102;SDS011;24847;48.218;16.414;2022-07-29T15:13:13;5.35;;;4.47;;
39102;SDS011;24847;48.218;16.414;2022-07-29T15:18:17;4.45;;;4.05;;
39102;SDS011;24847;48.218;16.414;2022-07-29T15:23:19;4.40;;;4.00;;
39102;SDS011;24847;48.218;16.414;2022-07-29T15:28:21;5.35;;;4.85;;
39102;SDS011;24847;48.218;16.414;2022-07-29T15:33:25;5.57;;;5.03;;
39102;SDS011;24847;48.218;16.414;2022-07-29T15:38:27;6.03;;;4.70;;
39102;SDS011;24847;48.218;16.414;2022-07-29T15:43:29;5.18;;;4.68;;
39102;SDS011;24847;48.218;16.414;2022-07-29T15:48:33;5.20;;;4.78;;
39102;SDS011;24847;48.218;16.414;2022-07-29T15:53:39;6.03;;;5.10;;
39102;SDS011;24847;48.218;16.414;2022-07-29T15:58:41;4.63;;;4.20;;
39102;SDS011;24847;48.218;16.414;2022-07-29T16:03:45;4.72;;;3.88;;
39102;SDS011;24847;48.218;16.414;2022-07-29T16:08:48;5.03;;;4.35;;
39102;SDS011;24847;48.218;16.414;2022-07-29T16:13:50;4.40;;;4.00;;
39102;SDS011;24847;48.218;16.414;2022-07-29T16:18:53;5.15;;;4.75;;
39102;SDS011;24847;48.218;16.414;2022-07-29T16:23:55;4.60;;;4.20;;
39102;SDS011;24847;48.218;16.414;2022-07-29T16:28:58;5.55;;;4.32;;
39102;SDS011;24847;48.218;16.414;2022-07-29T16:34:02;4.68;;;3.78;;
39102;SDS011;24847;48.218;16.414;2022-07-29T16:39:04;5.40;;;4.35;;
39102;SDS011;24847;48.218;16.414;2022-07-29T16:44:07;9.57;;;8.68;;
39102;SDS011;24847;48.218;16.414;2022-07-29T16:49:10;5.10;;;4.60;;
39102;SDS011;24847;48.218;16.414;2022-07-29T16:54:13;6.60;;;4.53;;
39102;SDS011;24847;48.218;16.414;2022-07-29T16:59:15;4.45;;;3.90;;
39102;SDS011;24847;48.218;16.414;2022-07-29T17:04:19;4.97;;;3.95;;
39102;SDS011;24847;48.218;16.414;2022-07-29T17:09:21;4.32;;;3.92;;
39102;SDS011;24847;48.218;16.414;2022-07-29T17:14:25;4.57;;;3.85;;
39102;SDS011;24847;48.218;16.414;2022-07-29T17:19:31;4.18;;;3.88;;
39102;SDS011;24847;48.218;16.414;2022-07-29T17:24:35;4.63;;;4.22;;
39102;SDS011;24847;48.218;16.414;2022-07-29T17:29:38;4.78;;;4.38;;
39102;SDS011;24847;48.218;16.414;2022-07-29T17:34:41;4.38;;;3.97;;
39102;SDS011;24847;48.218;16.414;2022-07-29T17:39:44;4.13;;;3.83;;
39102;SDS011;24847;48.218;16.414;2022-07-29T17:44:46;6.00;;;3.95;;
39102;SDS011;24847;48.218;16.414;2022-07-29T17:49:50;4.75;;;4.35;;
39102;SDS011;24847;48.218;16.414;2022-07-29T17:54:53;4.85;;;3.95;;
39102;SDS011;24847;48.218;16.414;2022-07-29T17:59:55;8.55;;;4.35;;
39102;SDS011;24847;48.218;16.414;2022-07-29T18:04:58;5.05;;;4.63;;
39102;SDS011;24847;48.218;16.414;2022-07-29T18:10:00;6.07;;;5.47;;
39102;SDS011;24847;48.218;16.414;2022-07-29T18:15:03;4.90;;;4.40;;
39102;SDS011;24847;48.218;16.414;2022-07-29T18:20:09;5.70;;;4.72;;
39102;SDS011;24847;48.218;16.414;2022-07-29T18:25:12;4.75;;;4.35;;
39102;SDS011;24847;48.218;16.414;2022-07-29T18:30:14;6.65;;;4.35;;
39102;SDS011;24847;48.218;16.414;2022-07-29T18:35:18;4.35;;;3.95;;
39102;SDS011;24847;48.218;16.414;2022-07-29T18:40:20;4.60;;;4.20;;
39102;SDS011;24847;48.218;16.414;2022-07-29T18:45:24;4.05;;;3.65;;
39102;SDS011;24847;48.218;16.414;2022-07-29T18:50:28;4.68;;;4.28;;
39102;SDS011;24847;48.218;16.414;2022-07-29T18:55:30;4.72;;;4.00;;
39102;SDS011;24847;48.218;16.414;2022-07-29T19:00:32;4.13;;;3.72;;
39102;SDS011;24847;48.218;16.414;2022-07-29T19:05:36;5.18;;;4.55;;
39102;SDS011;24847;48.218;16.414;2022-07-29T19:10:38;4.90;;;4.47;;
39102;SDS011;24847;48.218;16.414;2022-07-29T19:15:41;7.95;;;4.45;;
39102;SDS011;24847;48.218;16.414;2022-07-29T19:20:46;4.95;;;4.50;;
39102;SDS011;24847;48.218;16.414;2022-07-29T19:25:48;5.13;;;4.68;;
39102;SDS011;24847;48.218;16.414;2022-07-29T19:30:50;4.90;;;4.40;;
39102;SDS011;24847;48.218;16.414;2022-07-29T19:35:54;5.35;;;4.85;;
39102;SDS011;24847;48.218;16.414;2022-07-29T19:40:56;5.22;;;4.80;;
39102;SDS011;24847;48.218;16.414;2022-07-29T19:45:58;6.22;;;5.63;;
39102;SDS011;24847;48.218;16.414;2022-07-29T19:51:02;5.75;;;5.25;;
39102;SDS011;24847;48.218;16.414;2022-07-29T19:56:04;6.68;;;5.75;;
39102;SDS011;24847;48.218;16.414;2022-07-29T20:01:06;6.15;;;5.63;;
39102;SDS011;24847;48.218;16.414;2022-07-29T20:06:10;6.22;;;5.70;;
39102;SDS011;24847;48.218;16.414;2022-07-29T20:11:13;6.80;;;6.22;;
39102;SDS011;24847;48.218;16.414;2022-07-29T20:16:15;9.50;;;8.60;;
39102;SDS011;24847;48.218;16.414;2022-07-29T20:21:19;10.93;;;9.93;;
39102;SDS011;24847;48.218;16.414;2022-07-29T20:26:21;7.32;;;6.72;;
39102;SDS011;24847;48.218;16.414;2022-07-29T20:31:23;7.00;;;6.30;;
39102;SDS011;24847;48.218;16.414;2022-07-29T20:36:28;7.05;;;6.45;;
39102;SDS011;24847;48.218;16.414;2022-07-29T20:41:30;6.53;;;5.80;;
39102;SDS011;24847;48.218;16.414;2022-07-29T20:46:33;6.80;;;6.05;;
39102;SDS011;24847;48.218;16.414;2022-07-29T20:51:37;6.45;;;5.85;;
39102;SDS011;24847;48.218;16.414;2022-07-29T20:56:39;6.47;;;5.88;;
39102;SDS011;24847;48.218;16.414;2022-07-29T21:01:41;6.70;;;5.95;;
39102;SDS011;24847;48.218;16.414;2022-07-29T21:06:45;5.97;;;5.47;;
39102;SDS011;24847;48.218;16.414;2022-07-29T21:11:47;5.55;;;5.05;;
39102;SDS011;24847;48.218;16.414;2022-07-29T21:16:50;5.43;;;4.93;;
39102;SDS011;24847;48.218;16.414;2022-07-29T21:21:54;5.28;;;4.85;;
39102;SDS011;24847;48.218;16.414;2022-07-29T21:26:56;5.47;;;5.07;;
39102;SDS011;24847;48.218;16.414;2022-07-29T21:32:18;5.65;;;5.15;;
39102;SDS011;24847;48.218;16.414;2022-07-29T21:37:21;5.03;;;4.63;;
39102;SDS011;24847;48.218;16.414;2022-07-29T21:42:24;5.85;;;5.00;;
39102;SDS011;24847;48.218;16.414;2022-07-29T21:47:26;5.30;;;4.80;;
39102;SDS011;24847;48.218;16.414;2022-07-29T21:52:29;5.30;;;4.90;;
39102;SDS011;24847;48.218;16.414;2022-07-29T21:57:31;5.43;;;4.93;;
39102;SDS011;24847;48.218;16.414;2022-07-29T22:02:34;5.10;;;4.70;;
39102;SDS011;24847;48.218;16.414;2022-07-29T22:07:38;5.38;;;4.93;;
39102;SDS011;24847;48.218;16.414;2022-07-29T22:12:40;5.35;;;4.85;;
39102;SDS011;24847;48.218;16.414;2022-07-29T22:17:43;5.30;;;4.80;;
39102;SDS011;24847;48.218;16.414;2022-07-29T22:22:46;5.10;;;4.70;;
39102;SDS011;24847;48.218;16.414;2022-07-29T22:27:48;4.60;;;4.20;;
39102;SDS011;24847;48.218;16.414;2022-07-29T22:32:50;5.38;;;4.88;;
39102;SDS011;24847;48.218;16.414;2022-07-29T22:37:54;5.25;;;4.82;;
39102;SDS011;24847;48.218;16.414;2022-07-29T22:42:56;5.55;;;5.05;;
39102;SDS011;24847;48.218;16.414;2022-07-29T22:47:59;5.07;;;4.57;;
39102;SDS011;24847;48.218;16.414;2022-07-29T22:53:02;6.00;;;5.40;;
39102;SDS011;24847;48.218;16.414;2022-07-29T22:58:04;5.68;;;5.18;;
39102;SDS011;24847;48.218;16.414;2022-07-29T23:03:07;6.47;;;5.75;;
39102;SDS011;24847;48.218;16.414;2022-07-29T23:08:10;6.25;;;5.65;;
39102;SDS011;24847;48.218;16.414;2022-07-29T23:13:12;6.18;;;5.68;;
39102;SDS011;24847;48.218;16.414;2022-07-29T23:18:15;6.32;;;5.72;;
39102;SDS011;24847;48.218;16.414;2022-07-29T23:23:19;6.60;;;6.00;;
39102;SDS011;24847;48.218;16.414;2022-07-29T23:28:21;6.30;;;5.70;;
39102;SDS011;24847;48.218;16.414;2022-07-29T23:33:23;5.63;;;5.13;;
39102;SDS011;24847;48.218;16.414;2022-07-29T23:38:27;4.90;;;4.50;;
39102;SDS011;24847;48.218;16.414;2022-07-29T23:43:29;4.85;;;4.45;;
39102;SDS011;24847;48.218;16.414;2022-07-29T23:48:31;5.50;;;4.90;;
39102;SDS011;24847;48.218;16.414;2022-07-29T23:53:35;4.57;;;4.18;;
39102;SDS011;24847;48.218;16.414;2022-07-29T23:58:38;4.82;;;3.80;;
